Hauptseite
Satellitenwetter 15-Tage PrognosenKlimaSeewetter Wirbelstürme Blitz FlughäfenFAQ Newsletter Über uns
Wetter : Europa Afrika Nordamerika Südamerika Asien Australien-Ozeanien Andere
Sprachen Kontakt

Stuttgart, Deutschland

Echterdingen

Breite: 48-41N, Länge: 009-13E, Höhe: 396 m


METAR: EDDS 270220Z 06004KT 9999 OVC006 05/04 Q1011
TAF: EDDS 262300Z 2700/2724 08003KT 9999 OVC012 TEMPO 2700/2712 4000 BR OVC007 BECMG 2712/2714 BKN020

Zeit: 03:27 (02:27 UTC)

Beobachtung

Neuester Wetterbericht von vor 7 Minuten, um 02:20 UTC
Wind 4 kt aus Ost/Nordost
Temperatur 5°C
Luftfeuchtigkeit 93%
Luftdruck 1011 hPa
Sichtweite 10 km oder mehr
Geschlossene Wolkendecke in der Höhe von 600 ft

Maßeinheiten ändern

Prognose

Neuester Wetterbericht von vor 3 Stunden und 27 Minuten, um 23:00 UTC
Gültige Prognose vom 27 um 00 UTC bis 27 um 24 UTC
Wind 3 kt aus Ost
Sichtweite 10 km oder mehr
Geschlossene Wolkendecke in der Höhe von 1200 ft
Zeitweise
vom 27 um 00 UTC bis 27 um 12 UTC
Sichtweite: 4000 m
Geschlossene Wolkendecke in der Höhe von 700 ft
feuchter Dunst
Übergehend zu
vom 27 um 12 UTC bis 27 um 14 UTC
Durchbrochene Bewölkung in der Höhe von 2000 ft
Die Angaben auf diesen Webseiten unterliegen einer Erklärung über den Haftungsausschluss
Wetter : Europa Afrika Nordamerika Südamerika Asien Australien-Ozeanien Andere
Satellitenwetter 15-Tage PrognosenKlimaSeewetter Wirbelstürme Blitz FlughäfenFAQ Sprachen Kontakt Newsletter Über uns